sensor_id;sensor_type;location;lat;lon;timestamp;temperature;humidity
36444;DHT22;24692;45.642;13.806;2023-05-23T00:01:36;19.50;99.90
36444;DHT22;24692;45.642;13.806;2023-05-23T00:04:03;19.50;99.90
36444;DHT22;24692;45.642;13.806;2023-05-23T00:06:28;19.50;99.90
36444;DHT22;24692;45.642;13.806;2023-05-23T00:08:55;19.50;99.90
36444;DHT22;24692;45.642;13.806;2023-05-23T00:11:22;19.40;99.90
36444;DHT22;24692;45.642;13.806;2023-05-23T00:13:52;19.40;99.90
36444;DHT22;24692;45.642;13.806;2023-05-23T00:16:18;19.30;99.90
36444;DHT22;24692;45.642;13.806;2023-05-23T00:18:44;19.30;99.90
36444;DHT22;24692;45.642;13.806;2023-05-23T00:21:10;19.20;99.90
36444;DHT22;24692;45.642;13.806;2023-05-23T00:23:38;19.20;99.90
36444;DHT22;24692;45.642;13.806;2023-05-23T00:26:07;19.20;99.90
36444;DHT22;24692;45.642;13.806;2023-05-23T00:28:32;19.10;99.90
36444;DHT22;24692;45.642;13.806;2023-05-23T00:30:58;19.20;99.90
36444;DHT22;24692;45.642;13.806;2023-05-23T00:33:24;19.20;99.90
36444;DHT22;24692;45.642;13.806;2023-05-23T00:35:49;19.30;99.90
36444;DHT22;24692;45.642;13.806;2023-05-23T00:38:15;19.40;99.90
36444;DHT22;24692;45.642;13.806;2023-05-23T00:40:41;19.40;99.90
36444;DHT22;24692;45.642;13.806;2023-05-23T00:43:07;19.40;99.90
36444;DHT22;24692;45.642;13.806;2023-05-23T00:45:33;19.40;99.90
36444;DHT22;24692;45.642;13.806;2023-05-23T00:47:58;19.40;99.90
36444;DHT22;24692;45.642;13.806;2023-05-23T00:50:25;19.40;99.90
36444;DHT22;24692;45.642;13.806;2023-05-23T00:52:54;19.50;99.90
36444;DHT22;24692;45.642;13.806;2023-05-23T00:55:21;19.40;99.90
36444;DHT22;24692;45.642;13.806;2023-05-23T00:57:47;19.50;99.90
36444;DHT22;24692;45.642;13.806;2023-05-23T01:00:13;19.50;99.90
36444;DHT22;24692;45.642;13.806;2023-05-23T01:02:45;19.50;99.90
36444;DHT22;24692;45.642;13.806;2023-05-23T01:05:15;19.50;99.90
36444;DHT22;24692;45.642;13.806;2023-05-23T01:07:45;19.40;99.90
36444;DHT22;24692;45.642;13.806;2023-05-23T01:10:12;19.40;99.90
36444;DHT22;24692;45.642;13.806;2023-05-23T01:12:55;19.40;99.90
36444;DHT22;24692;45.642;13.806;2023-05-23T01:18:16;19.20;99.90
36444;DHT22;24692;45.642;13.806;2023-05-23T01:20:49;19.20;99.90
36444;DHT22;24692;45.642;13.806;2023-05-23T01:28:36;19.10;99.90
36444;DHT22;24692;45.642;13.806;2023-05-23T01:31:03;19.10;99.90
36444;DHT22;24692;45.642;13.806;2023-05-23T01:33:31;19.10;99.90
36444;DHT22;24692;45.642;13.806;2023-05-23T01:36:00;19.00;99.90
36444;DHT22;24692;45.642;13.806;2023-05-23T01:38:27;19.00;99.90
36444;DHT22;24692;45.642;13.806;2023-05-23T01:40:53;18.90;99.90
36444;DHT22;24692;45.642;13.806;2023-05-23T01:43:19;18.90;99.90
36444;DHT22;24692;45.642;13.806;2023-05-23T01:45:46;18.90;99.90
36444;DHT22;24692;45.642;13.806;2023-05-23T01:48:13;18.90;99.90
36444;DHT22;24692;45.642;13.806;2023-05-23T01:50:41;18.90;99.90
36444;DHT22;24692;45.642;13.806;2023-05-23T01:53:11;18.90;99.90
36444;DHT22;24692;45.642;13.806;2023-05-23T01:55:37;18.80;99.90
36444;DHT22;24692;45.642;13.806;2023-05-23T01:58:04;18.80;99.90
36444;DHT22;24692;45.642;13.806;2023-05-23T02:00:30;18.80;99.90
36444;DHT22;24692;45.642;13.806;2023-05-23T02:02:56;18.80;99.90
36444;DHT22;24692;45.642;13.806;2023-05-23T02:05:22;18.80;99.90
36444;DHT22;24692;45.642;13.806;2023-05-23T02:07:48;18.80;99.90
36444;DHT22;24692;45.642;13.806;2023-05-23T02:10:13;18.70;99.90
36444;DHT22;24692;45.642;13.806;2023-05-23T02:12:39;18.70;99.90
36444;DHT22;24692;45.642;13.806;2023-05-23T02:15:05;18.70;99.90
36444;DHT22;24692;45.642;13.806;2023-05-23T02:17:32;18.60;99.90
36444;DHT22;24692;45.642;13.806;2023-05-23T02:19:57;18.60;99.90
36444;DHT22;24692;45.642;13.806;2023-05-23T02:22:23;18.50;99.90
36444;DHT22;24692;45.642;13.806;2023-05-23T02:24:50;18.50;99.90
36444;DHT22;24692;45.642;13.806;2023-05-23T02:27:16;18.50;99.90
36444;DHT22;24692;45.642;13.806;2023-05-23T02:29:41;18.40;99.90
36444;DHT22;24692;45.642;13.806;2023-05-23T02:32:07;18.40;99.90
36444;DHT22;24692;45.642;13.806;2023-05-23T02:34:32;18.40;99.90
36444;DHT22;24692;45.642;13.806;2023-05-23T02:36:58;18.40;99.90
36444;DHT22;24692;45.642;13.806;2023-05-23T02:39:24;18.50;99.90
36444;DHT22;24692;45.642;13.806;2023-05-23T02:41:50;18.50;99.90
36444;DHT22;24692;45.642;13.806;2023-05-23T02:44:15;18.50;99.90
36444;DHT22;24692;45.642;13.806;2023-05-23T02:46:47;18.40;99.90
36444;DHT22;24692;45.642;13.806;2023-05-23T02:49:12;18.40;99.90
36444;DHT22;24692;45.642;13.806;2023-05-23T02:51:38;18.40;99.90
36444;DHT22;24692;45.642;13.806;2023-05-23T02:54:04;18.50;99.90
36444;DHT22;24692;45.642;13.806;2023-05-23T02:56:29;18.50;99.90
36444;DHT22;24692;45.642;13.806;2023-05-23T02:58:55;18.50;99.90
36444;DHT22;24692;45.642;13.806;2023-05-23T03:01:21;18.50;99.90
36444;DHT22;24692;45.642;13.806;2023-05-23T03:03:47;18.40;99.90
36444;DHT22;24692;45.642;13.806;2023-05-23T03:06:13;18.50;99.90
36444;DHT22;24692;45.642;13.806;2023-05-23T03:08:42;18.50;99.90
36444;DHT22;24692;45.642;13.806;2023-05-23T03:11:08;18.40;99.90
36444;DHT22;24692;45.642;13.806;2023-05-23T03:13:34;18.30;99.90
36444;DHT22;24692;45.642;13.806;2023-05-23T03:16:00;18.30;99.90
36444;DHT22;24692;45.642;13.806;2023-05-23T03:18:26;18.30;99.90
36444;DHT22;24692;45.642;13.806;2023-05-23T03:20:51;18.30;99.90
36444;DHT22;24692;45.642;13.806;2023-05-23T03:23:17;18.30;99.90
36444;DHT22;24692;45.642;13.806;2023-05-23T03:25:43;18.40;99.90
36444;DHT22;24692;45.642;13.806;2023-05-23T03:28:09;18.30;99.90
36444;DHT22;24692;45.642;13.806;2023-05-23T03:30:36;18.30;99.90
36444;DHT22;24692;45.642;13.806;2023-05-23T03:33:02;18.30;99.90
36444;DHT22;24692;45.642;13.806;2023-05-23T03:35:28;18.30;99.90
36444;DHT22;24692;45.642;13.806;2023-05-23T03:37:54;18.30;99.90
36444;DHT22;24692;45.642;13.806;2023-05-23T03:40:20;18.30;99.90
36444;DHT22;24692;45.642;13.806;2023-05-23T03:42:47;18.30;99.90
36444;DHT22;24692;45.642;13.806;2023-05-23T03:45:14;18.30;99.90
36444;DHT22;24692;45.642;13.806;2023-05-23T03:47:40;18.30;99.90
36444;DHT22;24692;45.642;13.806;2023-05-23T03:50:07;18.40;99.90
36444;DHT22;24692;45.642;13.806;2023-05-23T03:52:33;18.50;99.90
36444;DHT22;24692;45.642;13.806;2023-05-23T03:54:58;18.40;99.90
36444;DHT22;24692;45.642;13.806;2023-05-23T03:57:24;18.40;99.90
36444;DHT22;24692;45.642;13.806;2023-05-23T03:59:50;18.40;99.90
36444;DHT22;24692;45.642;13.806;2023-05-23T04:02:16;18.40;99.90
36444;DHT22;24692;45.642;13.806;2023-05-23T04:04:41;18.50;99.90
36444;DHT22;24692;45.642;13.806;2023-05-23T04:07:07;18.50;99.90
36444;DHT22;24692;45.642;13.806;2023-05-23T04:09:34;18.60;99.90
36444;DHT22;24692;45.642;13.806;2023-05-23T04:12:00;18.60;99.90
36444;DHT22;24692;45.642;13.806;2023-05-23T04:14:25;18.60;99.90
36444;DHT22;24692;45.642;13.806;2023-05-23T04:16:52;18.60;99.90
36444;DHT22;24692;45.642;13.806;2023-05-23T04:19:18;18.70;99.90
36444;DHT22;24692;45.642;13.806;2023-05-23T04:21:43;18.70;99.90
36444;DHT22;24692;45.642;13.806;2023-05-23T04:24:09;18.70;99.90
36444;DHT22;24692;45.642;13.806;2023-05-23T04:26:35;18.70;99.90
36444;DHT22;24692;45.642;13.806;2023-05-23T04:29:02;18.70;99.90
36444;DHT22;24692;45.642;13.806;2023-05-23T04:31:28;18.80;99.90
36444;DHT22;24692;45.642;13.806;2023-05-23T04:33:53;18.90;99.90
36444;DHT22;24692;45.642;13.806;2023-05-23T04:36:19;18.90;99.90
36444;DHT22;24692;45.642;13.806;2023-05-23T04:38:44;18.90;99.90
36444;DHT22;24692;45.642;13.806;2023-05-23T04:41:10;19.00;99.90
36444;DHT22;24692;45.642;13.806;2023-05-23T04:43:36;19.00;99.90
36444;DHT22;24692;45.642;13.806;2023-05-23T04:46:08;19.10;99.90
36444;DHT22;24692;45.642;13.806;2023-05-23T04:48:34;19.10;99.90
36444;DHT22;24692;45.642;13.806;2023-05-23T04:51:01;19.20;99.90
36444;DHT22;24692;45.642;13.806;2023-05-23T04:53:30;19.30;99.90
36444;DHT22;24692;45.642;13.806;2023-05-23T04:55:56;19.40;99.90
36444;DHT22;24692;45.642;13.806;2023-05-23T04:58:21;19.50;99.90
36444;DHT22;24692;45.642;13.806;2023-05-23T05:00:47;19.60;99.90
36444;DHT22;24692;45.642;13.806;2023-05-23T05:03:13;19.60;99.90
36444;DHT22;24692;45.642;13.806;2023-05-23T05:05:38;19.70;99.90
36444;DHT22;24692;45.642;13.806;2023-05-23T05:08:05;19.70;99.90
36444;DHT22;24692;45.642;13.806;2023-05-23T05:10:30;19.70;99.90
36444;DHT22;24692;45.642;13.806;2023-05-23T05:12:56;19.80;99.90
36444;DHT22;24692;45.642;13.806;2023-05-23T05:15:22;19.90;99.90
36444;DHT22;24692;45.642;13.806;2023-05-23T05:17:48;20.00;99.90
36444;DHT22;24692;45.642;13.806;2023-05-23T05:20:13;20.10;99.90
36444;DHT22;24692;45.642;13.806;2023-05-23T05:22:39;20.10;99.90
36444;DHT22;24692;45.642;13.806;2023-05-23T05:25:06;20.20;99.90
36444;DHT22;24692;45.642;13.806;2023-05-23T05:27:32;20.30;99.90
36444;DHT22;24692;45.642;13.806;2023-05-23T05:29:58;20.40;99.90
36444;DHT22;24692;45.642;13.806;2023-05-23T05:32:29;20.50;99.90
36444;DHT22;24692;45.642;13.806;2023-05-23T05:34:59;20.70;99.90
36444;DHT22;24692;45.642;13.806;2023-05-23T05:37:25;20.90;99.90
36444;DHT22;24692;45.642;13.806;2023-05-23T05:39:51;21.00;99.90
36444;DHT22;24692;45.642;13.806;2023-05-23T05:42:18;21.10;99.90
36444;DHT22;24692;45.642;13.806;2023-05-23T05:44:44;21.20;99.90
36444;DHT22;24692;45.642;13.806;2023-05-23T05:47:10;21.30;99.90
36444;DHT22;24692;45.642;13.806;2023-05-23T05:49:36;21.40;99.90
36444;DHT22;24692;45.642;13.806;2023-05-23T05:52:01;21.50;99.90
36444;DHT22;24692;45.642;13.806;2023-05-23T05:54:28;21.60;99.90
36444;DHT22;24692;45.642;13.806;2023-05-23T05:56:54;21.70;99.90
36444;DHT22;24692;45.642;13.806;2023-05-23T05:59:19;21.90;99.90
36444;DHT22;24692;45.642;13.806;2023-05-23T06:01:45;22.00;99.90
36444;DHT22;24692;45.642;13.806;2023-05-23T06:04:11;22.10;99.90
36444;DHT22;24692;45.642;13.806;2023-05-23T06:06:37;22.30;99.90
36444;DHT22;24692;45.642;13.806;2023-05-23T06:09:02;22.40;99.90
36444;DHT22;24692;45.642;13.806;2023-05-23T06:11:28;22.60;99.90
36444;DHT22;24692;45.642;13.806;2023-05-23T06:13:53;22.70;99.90
36444;DHT22;24692;45.642;13.806;2023-05-23T06:16:19;22.80;99.90
36444;DHT22;24692;45.642;13.806;2023-05-23T06:18:45;22.90;99.90
36444;DHT22;24692;45.642;13.806;2023-05-23T06:21:10;23.10;99.90
36444;DHT22;24692;45.642;13.806;2023-05-23T06:23:36;23.10;99.90
36444;DHT22;24692;45.642;13.806;2023-05-23T06:26:01;23.20;99.90
36444;DHT22;24692;45.642;13.806;2023-05-23T06:28:27;23.30;99.90
36444;DHT22;24692;45.642;13.806;2023-05-23T06:30:53;23.40;99.90
36444;DHT22;24692;45.642;13.806;2023-05-23T06:33:19;23.40;99.90
36444;DHT22;24692;45.642;13.806;2023-05-23T06:35:44;23.50;99.90
36444;DHT22;24692;45.642;13.806;2023-05-23T06:38:10;23.60;99.90
36444;DHT22;24692;45.642;13.806;2023-05-23T06:40:36;23.70;99.90
36444;DHT22;24692;45.642;13.806;2023-05-23T06:43:01;23.90;99.90
36444;DHT22;24692;45.642;13.806;2023-05-23T06:45:27;24.00;99.90
36444;DHT22;24692;45.642;13.806;2023-05-23T06:47:53;24.00;99.90
36444;DHT22;24692;45.642;13.806;2023-05-23T06:50:18;24.00;99.90
36444;DHT22;24692;45.642;13.806;2023-05-23T06:52:44;24.10;99.90
36444;DHT22;24692;45.642;13.806;2023-05-23T06:55:11;24.10;99.90
36444;DHT22;24692;45.642;13.806;2023-05-23T06:57:42;24.10;99.90
36444;DHT22;24692;45.642;13.806;2023-05-23T07:00:09;24.20;99.90
36444;DHT22;24692;45.642;13.806;2023-05-23T07:02:35;24.20;99.90
36444;DHT22;24692;45.642;13.806;2023-05-23T07:05:00;24.20;99.90
36444;DHT22;24692;45.642;13.806;2023-05-23T07:07:26;24.20;99.90
36444;DHT22;24692;45.642;13.806;2023-05-23T07:09:52;24.10;99.90
36444;DHT22;24692;45.642;13.806;2023-05-23T07:12:17;24.00;99.90
36444;DHT22;24692;45.642;13.806;2023-05-23T07:14:43;24.10;99.90
36444;DHT22;24692;45.642;13.806;2023-05-23T07:17:08;24.20;99.90
36444;DHT22;24692;45.642;13.806;2023-05-23T07:19:34;24.30;99.90
36444;DHT22;24692;45.642;13.806;2023-05-23T07:22:00;24.50;99.90
36444;DHT22;24692;45.642;13.806;2023-05-23T07:24:25;24.60;99.90
36444;DHT22;24692;45.642;13.806;2023-05-23T07:26:51;24.70;99.90
36444;DHT22;24692;45.642;13.806;2023-05-23T07:29:17;24.70;99.90
36444;DHT22;24692;45.642;13.806;2023-05-23T07:31:43;24.80;99.90
36444;DHT22;24692;45.642;13.806;2023-05-23T07:34:08;24.80;99.90
36444;DHT22;24692;45.642;13.806;2023-05-23T07:36:34;24.90;99.90
36444;DHT22;24692;45.642;13.806;2023-05-23T07:39:02;25.10;99.90
36444;DHT22;24692;45.642;13.806;2023-05-23T07:41:28;25.20;99.90
36444;DHT22;24692;45.642;13.806;2023-05-23T07:43:53;25.30;99.90
36444;DHT22;24692;45.642;13.806;2023-05-23T07:46:19;25.30;99.90
36444;DHT22;24692;45.642;13.806;2023-05-23T07:48:47;25.40;99.90
36444;DHT22;24692;45.642;13.806;2023-05-23T07:51:13;25.50;99.90
36444;DHT22;24692;45.642;13.806;2023-05-23T07:53:38;25.50;99.90
36444;DHT22;24692;45.642;13.806;2023-05-23T07:56:05;25.70;99.90
36444;DHT22;24692;45.642;13.806;2023-05-23T07:58:31;25.80;99.90
36444;DHT22;24692;45.642;13.806;2023-05-23T08:00:56;26.10;99.90
36444;DHT22;24692;45.642;13.806;2023-05-23T08:03:22;26.10;99.90
36444;DHT22;24692;45.642;13.806;2023-05-23T08:05:48;26.00;99.90
36444;DHT22;24692;45.642;13.806;2023-05-23T08:08:14;26.00;99.90
36444;DHT22;24692;45.642;13.806;2023-05-23T08:10:40;26.20;99.90
36444;DHT22;24692;45.642;13.806;2023-05-23T08:13:08;26.70;99.90
36444;DHT22;24692;45.642;13.806;2023-05-23T08:15:34;27.40;99.90
36444;DHT22;24692;45.642;13.806;2023-05-23T08:17:59;27.80;99.90
36444;DHT22;24692;45.642;13.806;2023-05-23T08:20:27;28.20;99.90
36444;DHT22;24692;45.642;13.806;2023-05-23T08:23:00;28.40;99.90
36444;DHT22;24692;45.642;13.806;2023-05-23T08:25:26;28.70;99.90
36444;DHT22;24692;45.642;13.806;2023-05-23T08:27:57;28.90;99.90
36444;DHT22;24692;45.642;13.806;2023-05-23T08:30:26;28.90;99.90
36444;DHT22;24692;45.642;13.806;2023-05-23T08:32:52;29.10;99.90
36444;DHT22;24692;45.642;13.806;2023-05-23T08:35:20;29.80;99.90
36444;DHT22;24692;45.642;13.806;2023-05-23T08:37:46;30.20;99.90
36444;DHT22;24692;45.642;13.806;2023-05-23T08:40:21;30.30;99.90
36444;DHT22;24692;45.642;13.806;2023-05-23T08:42:48;30.40;99.90
36444;DHT22;24692;45.642;13.806;2023-05-23T08:45:15;30.70;99.90
36444;DHT22;24692;45.642;13.806;2023-05-23T08:47:42;30.00;99.90
36444;DHT22;24692;45.642;13.806;2023-05-23T08:50:18;30.50;99.90
36444;DHT22;24692;45.642;13.806;2023-05-23T08:52:47;30.90;99.90
36444;DHT22;24692;45.642;13.806;2023-05-23T08:55:15;31.50;99.90
36444;DHT22;24692;45.642;13.806;2023-05-23T08:57:42;31.20;99.90
36444;DHT22;24692;45.642;13.806;2023-05-23T09:00:11;30.70;99.90
36444;DHT22;24692;45.642;13.806;2023-05-23T09:02:44;31.00;99.90
36444;DHT22;24692;45.642;13.806;2023-05-23T09:05:10;30.50;99.90
36444;DHT22;24692;45.642;13.806;2023-05-23T09:07:36;30.80;99.90
36444;DHT22;24692;45.642;13.806;2023-05-23T09:10:05;31.30;99.90
36444;DHT22;24692;45.642;13.806;2023-05-23T09:12:32;31.10;99.90
36444;DHT22;24692;45.642;13.806;2023-05-23T09:14:58;31.00;99.90
36444;DHT22;24692;45.642;13.806;2023-05-23T09:17:23;31.30;99.90
36444;DHT22;24692;45.642;13.806;2023-05-23T09:19:49;31.20;99.90
36444;DHT22;24692;45.642;13.806;2023-05-23T09:22:15;30.70;99.90
36444;DHT22;24692;45.642;13.806;2023-05-23T09:24:41;31.00;99.90
36444;DHT22;24692;45.642;13.806;2023-05-23T09:27:07;31.60;99.90
36444;DHT22;24692;45.642;13.806;2023-05-23T09:29:37;32.20;99.90
36444;DHT22;24692;45.642;13.806;2023-05-23T09:32:13;32.10;99.90
36444;DHT22;24692;45.642;13.806;2023-05-23T09:37:15;32.40;99.90
36444;DHT22;24692;45.642;13.806;2023-05-23T09:39:46;31.50;99.90
36444;DHT22;24692;45.642;13.806;2023-05-23T09:42:20;31.40;99.90
36444;DHT22;24692;45.642;13.806;2023-05-23T09:44:49;31.40;99.90
36444;DHT22;24692;45.642;13.806;2023-05-23T09:47:16;31.70;99.90
36444;DHT22;24692;45.642;13.806;2023-05-23T09:49:45;31.40;99.90
36444;DHT22;24692;45.642;13.806;2023-05-23T09:52:12;31.50;99.90
36444;DHT22;24692;45.642;13.806;2023-05-23T09:54:38;31.90;99.90
36444;DHT22;24692;45.642;13.806;2023-05-23T09:57:10;31.80;99.90
36444;DHT22;24692;45.642;13.806;2023-05-23T09:59:41;32.00;99.90
36444;DHT22;24692;45.642;13.806;2023-05-23T10:02:15;32.60;99.90
36444;DHT22;24692;45.642;13.806;2023-05-23T10:04:42;31.80;99.90
36444;DHT22;24692;45.642;13.806;2023-05-23T10:07:19;32.00;99.90
36444;DHT22;24692;45.642;13.806;2023-05-23T10:09:57;32.60;99.90
36444;DHT22;24692;45.642;13.806;2023-05-23T10:14:57;31.40;99.90
36444;DHT22;24692;45.642;13.806;2023-05-23T10:17:56;31.30;99.90
36444;DHT22;24692;45.642;13.806;2023-05-23T10:20:30;31.70;99.90
36444;DHT22;24692;45.642;13.806;2023-05-23T10:23:01;32.00;99.90
36444;DHT22;24692;45.642;13.806;2023-05-23T10:25:27;32.10;99.90
36444;DHT22;24692;45.642;13.806;2023-05-23T10:27:58;32.10;99.90
36444;DHT22;24692;45.642;13.806;2023-05-23T10:30:27;31.70;99.90
36444;DHT22;24692;45.642;13.806;2023-05-23T10:32:54;31.90;99.90
36444;DHT22;24692;45.642;13.806;2023-05-23T10:38:30;32.20;99.90
36444;DHT22;24692;45.642;13.806;2023-05-23T10:43:41;32.00;99.90
36444;DHT22;24692;45.642;13.806;2023-05-23T10:46:08;31.70;99.90
36444;DHT22;24692;45.642;13.806;2023-05-23T10:48:39;31.90;99.90
36444;DHT22;24692;45.642;13.806;2023-05-23T10:51:14;31.90;99.90
36444;DHT22;24692;45.642;13.806;2023-05-23T10:53:44;31.90;99.80
36444;DHT22;24692;45.642;13.806;2023-05-23T10:56:21;31.90;99.90
36444;DHT22;24692;45.642;13.806;2023-05-23T10:58:52;32.90;99.80
36444;DHT22;24692;45.642;13.806;2023-05-23T11:01:18;32.90;98.80
36444;DHT22;24692;45.642;13.806;2023-05-23T11:06:39;32.30;98.20
36444;DHT22;24692;45.642;13.806;2023-05-23T11:09:16;31.70;98.90
36444;DHT22;24692;45.642;13.806;2023-05-23T11:17:00;32.40;98.90
36444;DHT22;24692;45.642;13.806;2023-05-23T11:19:39;32.00;99.00
36444;DHT22;24692;45.642;13.806;2023-05-23T11:22:19;32.30;99.10
36444;DHT22;24692;45.642;13.806;2023-05-23T11:27:15;31.90;98.90
36444;DHT22;24692;45.642;13.806;2023-05-23T11:29:41;32.20;99.30
36444;DHT22;24692;45.642;13.806;2023-05-23T11:32:11;32.70;98.60
36444;DHT22;24692;45.642;13.806;2023-05-23T11:34:38;32.40;98.40
36444;DHT22;24692;45.642;13.806;2023-05-23T11:37:03;32.60;98.50
36444;DHT22;24692;45.642;13.806;2023-05-23T11:39:29;32.60;98.50
36444;DHT22;24692;45.642;13.806;2023-05-23T11:42:01;32.10;98.40
36444;DHT22;24692;45.642;13.806;2023-05-23T11:44:27;32.20;98.00
36444;DHT22;24692;45.642;13.806;2023-05-23T11:47:04;31.60;98.40
36444;DHT22;24692;45.642;13.806;2023-05-23T11:49:34;32.20;98.30
36444;DHT22;24692;45.642;13.806;2023-05-23T11:52:01;32.50;98.10
36444;DHT22;24692;45.642;13.806;2023-05-23T11:54:27;32.20;98.20
36444;DHT22;24692;45.642;13.806;2023-05-23T11:56:56;31.70;98.20
36444;DHT22;24692;45.642;13.806;2023-05-23T11:59:23;31.80;98.50
36444;DHT22;24692;45.642;13.806;2023-05-23T12:01:53;31.30;97.80
36444;DHT22;24692;45.642;13.806;2023-05-23T12:04:19;31.90;98.20
36444;DHT22;24692;45.642;13.806;2023-05-23T12:06:47;32.10;97.90
36444;DHT22;24692;45.642;13.806;2023-05-23T12:09:13;32.70;97.70
36444;DHT22;24692;45.642;13.806;2023-05-23T12:11:40;32.80;97.20
36444;DHT22;24692;45.642;13.806;2023-05-23T12:14:07;32.70;96.90
36444;DHT22;24692;45.642;13.806;2023-05-23T12:16:33;33.10;97.10
36444;DHT22;24692;45.642;13.806;2023-05-23T12:19:01;32.40;96.70
36444;DHT22;24692;45.642;13.806;2023-05-23T12:21:44;31.90;97.20
36444;DHT22;24692;45.642;13.806;2023-05-23T12:24:17;32.20;97.50
36444;DHT22;24692;45.642;13.806;2023-05-23T12:26:59;32.30;97.20
36444;DHT22;24692;45.642;13.806;2023-05-23T12:29:32;32.50;97.20
36444;DHT22;24692;45.642;13.806;2023-05-23T12:32:03;32.80;96.90
36444;DHT22;24692;45.642;13.806;2023-05-23T12:34:28;33.20;96.80
36444;DHT22;24692;45.642;13.806;2023-05-23T12:36:59;33.20;96.80
36444;DHT22;24692;45.642;13.806;2023-05-23T12:39:27;33.00;97.10
36444;DHT22;24692;45.642;13.806;2023-05-23T12:42:05;33.40;97.00
36444;DHT22;24692;45.642;13.806;2023-05-23T12:44:31;32.60;97.40
36444;DHT22;24692;45.642;13.806;2023-05-23T12:46:57;32.50;97.40
36444;DHT22;24692;45.642;13.806;2023-05-23T12:49:22;32.20;97.80
36444;DHT22;24692;45.642;13.806;2023-05-23T12:51:48;32.40;98.20
36444;DHT22;24692;45.642;13.806;2023-05-23T12:54:13;32.50;97.50
36444;DHT22;24692;45.642;13.806;2023-05-23T12:56:39;32.40;98.00
36444;DHT22;24692;45.642;13.806;2023-05-23T12:59:05;32.50;97.80
36444;DHT22;24692;45.642;13.806;2023-05-23T13:01:31;32.20;98.00
36444;DHT22;24692;45.642;13.806;2023-05-23T13:03:59;31.80;97.40
36444;DHT22;24692;45.642;13.806;2023-05-23T13:06:25;31.90;97.90
36444;DHT22;24692;45.642;13.806;2023-05-23T13:08:50;32.10;98.20
36444;DHT22;24692;45.642;13.806;2023-05-23T13:11:19;31.90;98.00
36444;DHT22;24692;45.642;13.806;2023-05-23T13:13:45;32.20;98.00
36444;DHT22;24692;45.642;13.806;2023-05-23T13:16:11;32.20;98.30
36444;DHT22;24692;45.642;13.806;2023-05-23T13:18:37;32.50;98.30
36444;DHT22;24692;45.642;13.806;2023-05-23T13:21:02;32.50;98.50
36444;DHT22;24692;45.642;13.806;2023-05-23T13:23:28;32.20;98.40
36444;DHT22;24692;45.642;13.806;2023-05-23T13:25:55;31.80;98.90
36444;DHT22;24692;45.642;13.806;2023-05-23T13:28:22;32.30;99.00
36444;DHT22;24692;45.642;13.806;2023-05-23T13:30:49;32.20;98.70
36444;DHT22;24692;45.642;13.806;2023-05-23T13:33:15;32.00;98.70
36444;DHT22;24692;45.642;13.806;2023-05-23T13:35:40;31.90;98.80
36444;DHT22;24692;45.642;13.806;2023-05-23T13:38:06;31.30;99.00
36444;DHT22;24692;45.642;13.806;2023-05-23T13:40:32;31.10;99.20
36444;DHT22;24692;45.642;13.806;2023-05-23T13:42:58;30.80;99.90
36444;DHT22;24692;45.642;13.806;2023-05-23T13:45:23;31.30;99.90
36444;DHT22;24692;45.642;13.806;2023-05-23T13:47:49;31.90;99.70
36444;DHT22;24692;45.642;13.806;2023-05-23T13:50:15;32.40;98.70
36444;DHT22;24692;45.642;13.806;2023-05-23T13:52:56;32.50;98.30
36444;DHT22;24692;45.642;13.806;2023-05-23T13:55:22;32.20;98.30
36444;DHT22;24692;45.642;13.806;2023-05-23T13:57:47;32.50;97.90
36444;DHT22;24692;45.642;13.806;2023-05-23T14:00:13;32.90;97.90
36444;DHT22;24692;45.642;13.806;2023-05-23T14:02:40;33.20;97.60
36444;DHT22;24692;45.642;13.806;2023-05-23T14:05:06;33.60;96.50
36444;DHT22;24692;45.642;13.806;2023-05-23T14:07:32;32.50;97.10
36444;DHT22;24692;45.642;13.806;2023-05-23T14:09:58;30.90;98.10
36444;DHT22;24692;45.642;13.806;2023-05-23T14:12:24;30.30;98.60
36444;DHT22;24692;45.642;13.806;2023-05-23T14:14:50;29.50;99.60
36444;DHT22;24692;45.642;13.806;2023-05-23T14:17:16;29.40;99.80
36444;DHT22;24692;45.642;13.806;2023-05-23T14:19:42;29.20;99.90
36444;DHT22;24692;45.642;13.806;2023-05-23T14:22:08;29.10;99.70
36444;DHT22;24692;45.642;13.806;2023-05-23T14:24:33;28.80;99.90
36444;DHT22;24692;45.642;13.806;2023-05-23T14:26:59;28.80;99.90
36444;DHT22;24692;45.642;13.806;2023-05-23T14:29:25;28.70;99.90
36444;DHT22;24692;45.642;13.806;2023-05-23T14:31:51;28.50;99.90
36444;DHT22;24692;45.642;13.806;2023-05-23T14:34:16;28.50;99.90
36444;DHT22;24692;45.642;13.806;2023-05-23T14:36:42;28.40;99.90
36444;DHT22;24692;45.642;13.806;2023-05-23T14:39:08;28.60;99.90
36444;DHT22;24692;45.642;13.806;2023-05-23T14:41:33;28.40;99.90
36444;DHT22;24692;45.642;13.806;2023-05-23T14:43:59;28.30;99.90
36444;DHT22;24692;45.642;13.806;2023-05-23T14:46:25;28.00;99.90
36444;DHT22;24692;45.642;13.806;2023-05-23T14:48:51;28.00;99.90
36444;DHT22;24692;45.642;13.806;2023-05-23T14:51:16;27.60;99.90
36444;DHT22;24692;45.642;13.806;2023-05-23T14:53:42;27.70;99.90
36444;DHT22;24692;45.642;13.806;2023-05-23T14:56:07;28.00;99.90
36444;DHT22;24692;45.642;13.806;2023-05-23T14:58:33;28.00;99.90
36444;DHT22;24692;45.642;13.806;2023-05-23T15:00:59;28.40;99.90
36444;DHT22;24692;45.642;13.806;2023-05-23T15:03:25;28.30;99.90
36444;DHT22;24692;45.642;13.806;2023-05-23T15:05:51;28.80;99.90
36444;DHT22;24692;45.642;13.806;2023-05-23T15:08:16;28.90;99.90
36444;DHT22;24692;45.642;13.806;2023-05-23T15:10:43;28.70;99.90
36444;DHT22;24692;45.642;13.806;2023-05-23T15:13:10;29.10;99.90
36444;DHT22;24692;45.642;13.806;2023-05-23T15:15:35;29.20;99.90
36444;DHT22;24692;45.642;13.806;2023-05-23T15:18:05;29.40;99.90
36444;DHT22;24692;45.642;13.806;2023-05-23T15:20:34;29.50;99.90
36444;DHT22;24692;45.642;13.806;2023-05-23T15:23:02;29.50;99.90
36444;DHT22;24692;45.642;13.806;2023-05-23T15:25:28;29.60;99.80
36444;DHT22;24692;45.642;13.806;2023-05-23T15:27:54;29.70;99.90
36444;DHT22;24692;45.642;13.806;2023-05-23T15:30:21;29.70;99.90
36444;DHT22;24692;45.642;13.806;2023-05-23T15:32:47;29.70;99.90
36444;DHT22;24692;45.642;13.806;2023-05-23T15:35:13;29.70;99.90
36444;DHT22;24692;45.642;13.806;2023-05-23T15:37:39;29.60;99.90
36444;DHT22;24692;45.642;13.806;2023-05-23T15:40:06;29.50;99.90
36444;DHT22;24692;45.642;13.806;2023-05-23T15:42:31;29.20;99.90
36444;DHT22;24692;45.642;13.806;2023-05-23T15:44:57;28.90;99.90